Time;durP1;ratioP1;P1;durP2;ratioP2;P2;SDS_P1;SDS_P2;PMS_P1;PMS_P2;Temp;Humidity;BMP_temperature;BMP_pressure;BME280_temperature;BME280_humidity;BME280_pressure;Samples;Min_cycle;Max_cycle;Signal;HPM_P1;HPM_P2
2022/06/16 00:02:15;;;;;;;6.00;3.65;;;;;;;15.38;68.99;99520.69;1768055;81;21523;-79
2022/06/16 00:04:46;;;;;;;11.40;4.10;;;;;;;15.30;70.57;99524.06;1769586;81;21003;-80
2022/06/16 00:07:10;;;;;;;7.92;3.70;;;;;;;15.23;70.96;99526.50;1769132;81;21495;-79
2022/06/16 00:09:37;;;;;;;11.85;3.87;;;;;;;15.17;71.19;99530.19;1765362;81;20975;-80
2022/06/16 00:12:05;;;;;;;9.10;4.03;;;;;;;15.14;70.58;99526.83;1769539;81;21011;-81
2022/06/16 00:14:32;;;;;;;5.90;3.47;;;;;;;15.11;71.18;99538.28;1762453;81;21502;-80
2022/06/16 00:16:58;;;;;;;5.42;3.30;;;;;;;15.09;71.23;99529.63;1771429;81;20941;-80
2022/06/16 00:19:25;;;;;;;6.50;3.65;;;;;;;15.04;71.17;99527.61;1760527;81;21030;-79
2022/06/16 00:21:52;;;;;;;10.30;3.92;;;;;;;15.01;71.16;99527.74;1763886;81;21581;-79
2022/06/16 00:24:20;;;;;;;6.55;3.42;;;;;;;14.99;70.87;99525.64;1758322;81;21047;-79
2022/06/16 00:26:47;;;;;;;7.30;3.55;;;;;;;14.92;71.33;99526.30;1749734;81;21055;-81
2022/06/16 00:29:14;;;;;;;7.12;3.27;;;;;;;14.90;71.54;99530.30;1778954;80;20996;-80
2022/06/16 00:31:42;;;;;;;6.83;3.95;;;;;;;14.91;71.75;99525.91;1772396;80;21474;-80
2022/06/16 00:34:09;;;;;;;8.65;3.87;;;;;;;14.90;71.91;99527.69;1782791;80;20988;-80
2022/06/16 00:36:37;;;;;;;10.18;3.95;;;;;;;14.89;71.96;99531.19;1773152;79;20975;-80
2022/06/16 00:39:04;;;;;;;6.95;4.30;;;;;;;14.87;71.61;99529.55;1791383;80;21482;-80
2022/06/16 00:41:31;;;;;;;8.15;3.77;;;;;;;14.82;71.61;99527.11;1745417;82;21371;-81
2022/06/16 00:44:02;;;;;;;8.15;3.95;;;;;;;14.81;72.61;99521.45;1732703;81;21554;-80
2022/06/16 00:46:29;;;;;;;10.30;4.30;;;;;;;14.81;72.49;99525.84;1752297;81;21062;-79
2022/06/16 00:49:04;;;;;;;9.30;4.28;;;;;;;14.79;73.06;99531.59;1752924;81;20995;-83
2022/06/16 00:51:45;;;;;;;9.00;4.58;;;;;;;14.75;72.76;99528.68;1742348;81;20976;-80
2022/06/16 00:54:33;;;;;;;5.40;3.62;;;;;;;14.70;73.05;99527.08;1754923;81;21035;-79
2022/06/16 00:57:08;;;;;;;7.80;3.65;;;;;;;14.71;73.19;99530.55;1737416;81;21111;-80
2022/06/16 00:59:37;;;;;;;6.97;4.12;;;;;;;14.70;73.21;99523.59;1758816;81;21266;-80
2022/06/16 01:02:06;;;;;;;6.30;3.65;;;;;;;14.65;72.78;99518.53;1762884;81;21609;-79
2022/06/16 01:07:15;;;;;;;6.78;3.65;;;;;;;14.59;72.96;99527.90;1718822;82;20992;-80
2022/06/16 01:09:44;;;;;;;7.33;3.50;;;;;;;14.48;73.61;99526.94;1763815;81;21118;-81
2022/06/16 01:16:05;;;;;;;11.48;3.67;;;;;;;14.43;73.41;99528.00;1746250;81;21015;-79
2022/06/16 01:18:43;;;;;;;6.95;3.55;;;;;;;14.38;73.33;99529.44;1750840;82;21041;-80
2022/06/16 01:21:33;;;;;;;6.30;3.85;;;;;;;14.34;74.54;99527.84;1768573;81;20988;-79
2022/06/16 01:24:14;;;;;;;10.38;4.25;;;;;;;14.33;74.41;99530.06;1755921;81;20995;-80
2022/06/16 01:27:10;;;;;;;28.73;5.03;;;;;;;14.32;74.50;99529.65;1768459;81;21035;-80
2022/06/16 01:30:04;;;;;;;30.75;5.08;;;;;;;14.31;74.35;99527.50;1772776;81;21063;-79
2022/06/16 01:32:51;;;;;;;44.98;5.40;;;;;;;14.31;75.51;99525.34;1766101;81;21055;-80
2022/06/16 01:35:41;;;;;;;38.40;5.35;;;;;;;14.26;74.85;99521.55;1749269;81;21066;-79
2022/06/16 01:38:26;;;;;;;21.55;5.15;;;;;;;14.18;73.22;99522.72;1740956;81;21035;-79
2022/06/16 01:41:13;;;;;;;17.95;5.10;;;;;;;14.07;74.22;99532.23;1738283;81;21076;-81
2022/06/16 01:44:04;;;;;;;23.80;4.25;;;;;;;14.03;73.89;99536.70;1759123;81;20995;-81
2022/06/16 01:46:34;;;;;;;13.72;4.62;;;;;;;14.02;74.39;99531.52;1767649;81;20983;-80
2022/06/16 01:49:22;;;;;;;11.33;4.03;;;;;;;14.03;74.80;99532.78;1730314;82;21062;-81
2022/06/16 01:51:55;;;;;;;;;;;;;;;14.04;75.65;99527.94;1751780;81;21047;-80
2022/06/16 01:54:33;;;;;;;9.33;4.33;;;;;;;14.05;76.91;99521.83;1764397;81;20118;-81
2022/06/16 01:57:14;;;;;;;7.67;3.92;;;;;;;14.08;74.54;99524.78;1740894;81;21102;-80
2022/06/16 01:59:47;;;;;;;5.60;3.20;;;;;;;14.05;77.17;99520.52;1762365;81;21031;-81
2022/06/16 02:02:18;;;;;;;12.33;3.45;;;;;;;14.03;75.39;99526.25;1755861;81;21548;-81
2022/06/16 02:04:53;;;;;;;7.12;3.10;;;;;;;14.02;74.67;99519.75;1764775;81;21083;-82
2022/06/16 02:07:28;;;;;;;6.60;3.45;;;;;;;13.95;73.65;99522.15;1750876;79;20940;-81
2022/06/16 02:09:58;;;;;;;6.45;3.20;;;;;;;13.89;74.78;99526.69;1768503;81;21050;-81
2022/06/16 02:15:22;;;;;;;11.60;3.60;;;;;;;13.83;75.49;99517.73;1768900;81;21023;-81
2022/06/16 02:17:53;;;;;;;5.78;3.30;;;;;;;13.81;75.19;99521.31;1756804;81;21052;-81
2022/06/16 02:20:20;;;;;;;7.97;3.65;;;;;;;13.77;74.70;99524.47;1754502;80;21052;-80
2022/06/16 02:22:47;;;;;;;10.53;3.90;;;;;;;13.70;74.14;99525.09;1732146;81;20983;-81
2022/06/16 02:25:15;;;;;;;6.17;3.55;;;;;;;13.65;74.83;99521.78;1755132;81;22129;-81
2022/06/16 02:27:43;;;;;;;6.10;3.62;;;;;;;13.60;74.96;99524.97;1739159;81;21011;-79
2022/06/16 02:30:11;;;;;;;6.58;3.27;;;;;;;13.57;74.65;99522.47;1757881;80;20988;-80
2022/06/16 02:32:49;;;;;;;6.28;3.50;;;;;;;13.55;74.06;99520.36;1773712;80;21035;-80
2022/06/16 02:35:41;;;;;;;6.80;3.15;;;;;;;13.45;74.78;99522.39;1776881;79;21150;-80
2022/06/16 02:38:22;;;;;;;8.28;3.67;;;;;;;13.40;75.02;99520.81;1734682;82;21024;-80
2022/06/16 02:41:18;;;;;;;8.10;3.33;;;;;;;13.37;75.03;99530.03;1777025;80;21003;-79
2022/06/16 02:43:53;;;;;;;10.75;3.95;;;;;;;13.29;75.24;99527.61;1770304;81;21010;-79
2022/06/16 02:46:49;;;;;;;8.83;3.70;;;;;;;13.21;75.14;99529.16;1737377;81;20972;-80
2022/06/16 02:49:54;;;;;;;5.70;3.45;;;;;;;13.23;75.78;99528.67;1749049;81;21562;-80
2022/06/16 02:52:44;;;;;;;10.68;4.05;;;;;;;13.26;75.80;99533.78;1765393;79;20983;-80
2022/06/16 02:55:22;;;;;;;8.90;4.10;;;;;;;13.26;75.58;99534.24;1750527;81;20997;-80
2022/06/16 02:57:56;;;;;;;8.95;3.45;;;;;;;13.29;74.53;99535.05;1768942;81;21019;-79
2022/06/16 03:00:41;;;;;;;7.35;3.55;;;;;;;13.31;75.83;99533.70;1768881;81;20991;-80
2022/06/16 03:03:33;;;;;;;12.33;3.52;;;;;;;13.37;75.97;99543.09;1767865;80;20980;-79
2022/06/16 03:06:02;;;;;;;10.45;3.52;;;;;;;13.39;75.00;99536.06;1770275;81;20967;-81
2022/06/16 03:08:31;;;;;;;10.23;3.95;;;;;;;13.41;76.21;99543.41;1766595;81;22147;-81
2022/06/16 03:11:01;;;;;;;10.72;3.50;;;;;;;13.43;75.04;99548.12;1756178;81;21008;-80
2022/06/16 03:13:32;;;;;;;9.58;3.40;;;;;;;13.48;75.52;99546.25;1756328;81;21487;-80
2022/06/16 03:16:02;;;;;;;7.12;3.47;;;;;;;13.55;75.92;99543.87;1741496;81;21031;-80
2022/06/16 03:18:30;;;;;;;8.43;3.10;;;;;;;13.60;75.46;99546.33;1759638;81;21085;-81
2022/06/16 03:20:59;;;;;;;8.75;3.77;;;;;;;13.64;75.59;99539.66;1756105;81;21019;-80
2022/06/16 03:23:26;;;;;;;7.83;3.70;;;;;;;13.71;75.06;99542.49;1757400;81;20979;-82
2022/06/16 03:25:54;;;;;;;8.05;4.00;;;;;;;13.75;75.79;99535.84;1756176;81;21024;-80
2022/06/16 03:28:21;;;;;;;8.50;4.05;;;;;;;13.80;76.27;99544.41;1768621;81;21459;-79
2022/06/16 03:30:48;;;;;;;8.70;3.75;;;;;;;13.84;75.89;99543.41;1771839;80;21011;-79
2022/06/16 03:33:17;;;;;;;7.35;3.62;;;;;;;13.86;75.48;99536.37;1783320;80;21035;-79
2022/06/16 03:35:46;;;;;;;7.87;3.70;;;;;;;13.90;75.14;99542.76;1744181;81;21058;-80
2022/06/16 03:40:55;;;;;;;7.97;3.90;;;;;;;13.91;73.81;99538.41;1759013;81;21155;-81
2022/06/16 03:43:24;;;;;;;8.85;3.20;;;;;;;13.87;73.62;99538.10;1762659;81;21015;-81
2022/06/16 03:45:52;;;;;;;11.63;3.50;;;;;;;13.83;74.07;99535.19;1758826;81;21022;-80
2022/06/16 03:48:20;;;;;;;8.05;3.30;;;;;;;13.82;74.05;99533.45;1774593;81;21007;-81
2022/06/16 03:50:47;;;;;;;11.33;3.37;;;;;;;13.78;73.58;99534.46;1757557;81;21019;-81
2022/06/16 03:53:15;;;;;;;6.17;3.33;;;;;;;13.79;74.01;99536.19;1772913;81;21003;-81
2022/06/16 03:55:44;;;;;;;13.35;3.52;;;;;;;13.80;72.93;99534.81;1774964;80;21062;-80
2022/06/16 03:58:13;;;;;;;6.35;3.47;;;;;;;13.78;73.75;99537.92;1774228;81;21014;-80
2022/06/16 04:00:42;;;;;;;7.80;3.98;;;;;;;13.81;73.50;99533.92;1771868;81;20999;-81
2022/06/16 04:05:55;;;;;;;8.95;3.60;;;;;;;13.84;72.66;99532.50;1760693;81;21022;-80
2022/06/16 04:08:23;;;;;;;14.60;4.25;;;;;;;13.87;73.40;99524.58;1772180;80;20990;-81
2022/06/16 04:10:51;;;;;;;6.35;3.37;;;;;;;13.96;72.82;99527.34;1767239;81;21585;-81
2022/06/16 04:13:18;;;;;;;11.80;3.55;;;;;;;14.04;73.26;99527.94;1758143;81;21030;-81
2022/06/16 04:15:46;;;;;;;6.58;3.60;;;;;;;14.11;73.14;99530.77;1765058;80;21014;-80
2022/06/16 04:18:13;;;;;;;9.50;3.70;;;;;;;14.17;72.94;99521.87;1759625;80;21014;-81
2022/06/16 04:20:42;;;;;;;14.33;3.58;;;;;;;14.26;73.19;99529.39;1785782;80;21058;-80
2022/06/16 04:23:19;;;;;;;7.67;4.00;;;;;;;14.37;73.72;99518.59;1784671;80;20936;-81
2022/06/16 04:25:46;;;;;;;8.95;3.37;;;;;;;14.49;73.17;99521.25;1774013;80;20996;-80
2022/06/16 04:28:14;;;;;;;7.28;3.80;;;;;;;14.61;73.26;99531.31;1745534;81;21015;-80
2022/06/16 04:30:43;;;;;;;7.17;3.42;;;;;;;14.72;73.11;99533.55;1735709;82;21014;-80
2022/06/16 04:33:12;;;;;;;11.53;4.00;;;;;;;14.80;72.63;99523.69;1767836;81;21045;-80
2022/06/16 04:35:41;;;;;;;8.93;3.98;;;;;;;14.88;72.50;99523.39;1769562;81;21048;-81
2022/06/16 04:38:10;;;;;;;8.28;3.72;;;;;;;14.96;72.56;99532.28;1758654;81;21464;-81
2022/06/16 04:40:38;;;;;;;16.67;4.30;;;;;;;15.05;72.12;99531.50;1758585;81;20984;-81
2022/06/16 04:43:11;;;;;;;10.48;4.15;;;;;;;15.14;72.47;99532.06;1741814;81;21107;-80
2022/06/16 04:45:39;;;;;;;18.77;5.35;;;;;;;15.24;72.35;99522.95;1741508;81;21545;-79
2022/06/16 04:48:08;;;;;;;12.80;4.22;;;;;;;15.32;71.99;99531.41;1744738;81;20964;-79
2022/06/16 04:50:37;;;;;;;13.18;4.70;;;;;;;15.40;72.00;99531.09;1763341;81;20993;-80
2022/06/16 04:53:06;;;;;;;12.75;4.28;;;;;;;15.46;71.42;99538.74;1751467;81;21011;-80
2022/06/16 04:55:34;;;;;;;9.23;4.28;;;;;;;15.50;71.45;99532.47;1754791;81;21105;-79
2022/06/16 04:58:06;;;;;;;7.72;4.28;;;;;;;15.56;70.84;99528.30;1751844;81;21046;-79
2022/06/16 05:00:38;;;;;;;;;;;;;;;15.63;71.26;99533.68;1759163;81;21562;-80
2022/06/16 05:03:07;;;;;;;7.78;3.40;;;;;;;15.71;71.39;99532.08;1762144;80;20428;-81
2022/06/16 05:05:41;;;;;;;9.23;3.62;;;;;;;15.79;70.75;99533.97;1737154;83;21523;-80
2022/06/16 05:08:28;;;;;;;6.67;3.60;;;;;;;15.90;70.26;99544.05;1740865;81;20995;-79
2022/06/16 05:10:57;;;;;;;9.30;3.60;;;;;;;15.95;70.13;99535.98;1750352;81;21008;-80
2022/06/16 05:13:41;;;;;;;11.95;5.58;;;;;;;16.02;70.04;99538.77;1762291;81;21008;-80
2022/06/16 05:16:09;;;;;;;8.85;3.65;;;;;;;16.10;69.89;99536.22;1767249;81;21028;-79
2022/06/16 05:18:55;;;;;;;9.80;3.70;;;;;;;16.17;69.65;99530.72;1741561;81;21527;-82
2022/06/16 05:21:41;;;;;;;5.53;3.42;;;;;;;16.24;69.47;99530.41;1741734;81;21000;-79
2022/06/16 05:24:25;;;;;;;7.00;3.33;;;;;;;16.34;69.41;99536.13;1763550;81;21031;-80
2022/06/16 05:26:56;;;;;;;12.75;4.10;;;;;;;16.44;69.03;99536.14;1724076;83;21508;-80
2022/06/16 05:29:31;;;;;;;6.70;3.52;;;;;;;16.50;68.79;99533.72;1762757;81;21447;-80
2022/06/16 05:32:16;;;;;;;8.03;3.72;;;;;;;16.59;68.66;99539.02;1758467;81;20984;-80
2022/06/16 05:35:02;;;;;;;7.50;4.15;;;;;;;16.68;68.34;99536.02;1747379;81;21554;-81
2022/06/16 05:37:36;;;;;;;7.45;3.77;;;;;;;16.75;67.86;99529.59;1729231;81;21550;-81
2022/06/16 05:40:08;;;;;;;8.13;3.83;;;;;;;16.80;67.71;99528.06;1729399;81;21029;-80
2022/06/16 05:42:36;;;;;;;9.28;3.52;;;;;;;16.86;67.60;99529.98;1703068;81;21034;-80
2022/06/16 05:45:11;;;;;;;7.00;3.98;;;;;;;16.93;67.30;99533.22;1764183;81;21011;-81
2022/06/16 05:47:48;;;;;;;7.75;4.15;;;;;;;17.01;67.11;99534.16;1749773;81;21550;-80
2022/06/16 05:50:17;;;;;;;10.13;3.77;;;;;;;17.10;66.77;99541.64;1740384;81;21511;-81
2022/06/16 05:52:45;;;;;;;9.65;4.97;;;;;;;17.15;66.69;99533.55;1749140;81;21003;-80
2022/06/16 05:55:19;;;;;;;8.63;4.17;;;;;;;17.20;66.36;99540.30;1763649;81;21045;-80
2022/06/16 05:57:46;;;;;;;10.40;4.45;;;;;;;17.24;65.92;99544.96;1748930;81;21074;-80
2022/06/16 06:00:15;;;;;;;9.40;4.72;;;;;;;17.30;65.52;99548.63;1758235;81;21055;-81
2022/06/16 06:02:43;;;;;;;8.63;4.03;;;;;;;17.33;65.27;99551.13;1753918;81;21031;-80
2022/06/16 06:05:11;;;;;;;11.48;4.28;;;;;;;17.42;65.73;99551.16;1758092;81;21117;-81
2022/06/16 06:18:41;;;;;;;9.78;3.92;;;;;;;17.93;64.62;99542.24;1751928;81;21027;-82
2022/06/16 06:21:08;;;;;;;8.48;4.55;;;;;;;18.04;64.27;99540.77;1761782;81;20995;-82
2022/06/16 06:23:35;;;;;;;9.03;4.25;;;;;;;18.13;63.93;99542.59;1759503;81;21028;-81
2022/06/16 06:26:02;;;;;;;14.03;4.47;;;;;;;18.25;64.02;99544.14;1760413;81;21062;-81
2022/06/16 06:28:28;;;;;;;13.62;4.67;;;;;;;18.38;63.71;99542.20;1752695;81;21047;-80
2022/06/16 06:30:56;;;;;;;9.05;4.45;;;;;;;18.47;63.63;99539.97;1761146;81;21147;-82
2022/06/16 06:33:24;;;;;;;14.98;4.17;;;;;;;18.59;62.92;99543.76;1756749;81;21038;-81
2022/06/16 06:35:51;;;;;;;8.75;4.62;;;;;;;18.71;62.43;99542.28;1752362;81;21063;-79
2022/06/16 06:38:17;;;;;;;6.35;4.30;;;;;;;18.82;62.76;99545.25;1752778;81;21029;-80
2022/06/16 06:40:44;;;;;;;9.85;4.22;;;;;;;18.92;61.77;99547.39;1757122;81;21007;-81
2022/06/16 06:43:11;;;;;;;7.25;4.45;;;;;;;19.01;61.75;99550.39;1757079;81;22221;-80
2022/06/16 06:45:39;;;;;;;8.08;4.22;;;;;;;19.10;61.74;99545.13;1751816;80;21063;-81
2022/06/16 06:48:07;;;;;;;7.20;3.98;;;;;;;19.22;60.91;99546.26;1756369;80;21606;-80
2022/06/16 06:50:38;;;;;;;9.08;4.25;;;;;;;19.28;60.17;99540.18;1752743;81;21012;-80
2022/06/16 06:53:06;;;;;;;8.83;4.15;;;;;;;19.34;59.95;99546.91;1777976;80;21046;-79
2022/06/16 06:55:36;;;;;;;7.03;3.67;;;;;;;19.40;59.16;99542.62;1756822;80;21360;-80
2022/06/16 06:58:06;;;;;;;10.65;3.90;;;;;;;19.49;59.45;99543.89;1758557;81;21066;-79
2022/06/16 07:00:34;;;;;;;7.95;3.50;;;;;;;19.60;59.62;99540.69;1752605;81;21003;-79
2022/06/16 07:03:00;;;;;;;6.95;3.77;;;;;;;19.71;59.35;99534.36;1757870;81;21027;-80
2022/06/16 07:05:27;;;;;;;6.08;3.30;;;;;;;19.82;58.61;99537.25;1776192;80;21487;-78
2022/06/16 07:07:58;;;;;;;7.42;3.30;;;;;;;19.89;56.61;99543.03;1758335;80;21064;-80
2022/06/16 07:10:24;;;;;;;9.73;4.00;;;;;;;19.99;57.81;99536.28;1763478;81;21037;-79
2022/06/16 07:12:51;;;;;;;8.15;4.17;;;;;;;20.10;57.66;99529.57;1755691;81;21003;-79
2022/06/16 07:15:18;;;;;;;11.73;5.45;;;;;;;20.22;56.80;99534.98;1754897;81;21061;-80
2022/06/16 07:17:45;;;;;;;7.08;3.70;;;;;;;20.30;54.67;99526.61;1763749;81;20968;-80
2022/06/16 07:20:15;;;;;;;10.55;3.35;;;;;;;20.37;55.48;99528.41;1760101;80;21007;-82
2022/06/16 07:22:44;;;;;;;4.30;2.33;;;;;;;20.49;54.34;99524.20;1760915;81;21012;-79
2022/06/16 07:25:13;;;;;;;5.75;2.72;;;;;;;20.56;54.51;99518.95;1761689;81;21018;-79
2022/06/16 07:27:40;;;;;;;9.20;2.70;;;;;;;20.64;54.43;99520.69;1758661;81;21035;-79
2022/06/16 07:30:14;;;;;;;14.23;2.92;;;;;;;20.73;54.52;99510.90;1749757;80;21046;-81
2022/06/16 07:32:42;;;;;;;9.58;2.72;;;;;;;20.88;53.40;99513.55;1739628;81;21128;-81
2022/06/16 07:35:12;;;;;;;7.17;2.42;;;;;;;20.92;51.73;99516.38;1763528;81;21059;-82
2022/06/16 07:37:40;;;;;;;5.33;2.35;;;;;;;20.97;51.91;99509.00;1757787;80;21007;-80
2022/06/16 07:40:09;;;;;;;7.40;2.22;;;;;;;21.05;50.32;99510.73;1757207;80;20971;-81
2022/06/16 07:42:36;;;;;;;10.72;2.20;;;;;;;21.17;50.86;99513.05;1762481;81;21028;-79
2022/06/16 07:45:04;;;;;;;10.35;2.17;;;;;;;21.22;48.01;99517.11;1730131;81;21008;-80
2022/06/16 07:47:30;;;;;;;6.85;1.90;;;;;;;21.31;51.12;99518.80;1756253;80;21214;-82
2022/06/16 07:49:57;;;;;;;5.12;1.70;;;;;;;21.42;49.50;99505.76;1771201;80;21559;-82
2022/06/16 07:52:26;;;;;;;3.67;1.92;;;;;;;21.54;50.68;99506.33;1772936;80;21021;-83
2022/06/16 07:54:53;;;;;;;3.45;1.67;;;;;;;21.67;50.33;99502.92;1781221;79;21350;-80
2022/06/16 07:57:21;;;;;;;11.57;2.02;;;;;;;21.80;50.16;99506.45;1756206;81;21012;-81
2022/06/16 07:59:54;;;;;;;5.92;1.90;;;;;;;21.93;48.48;99506.52;1755209;81;21062;-80
2022/06/16 08:02:21;;;;;;;4.47;2.42;;;;;;;22.03;49.77;99504.47;1756568;80;21003;-80
2022/06/16 08:04:48;;;;;;;7.78;3.87;;;;;;;22.16;49.93;99500.55;1755693;81;21538;-81
2022/06/16 08:07:15;;;;;;;11.40;2.50;;;;;;;22.29;49.12;99505.05;1761508;81;21023;-79
2022/06/16 08:09:42;;;;;;;7.50;2.37;;;;;;;22.41;49.59;99501.09;1760940;80;20987;-78
2022/06/16 08:12:10;;;;;;;7.15;2.45;;;;;;;22.54;49.33;99504.22;1755532;81;21058;-81
2022/06/16 08:14:42;;;;;;;4.80;1.90;;;;;;;22.66;49.04;99499.89;1762708;81;21123;-82
2022/06/16 08:17:26;;;;;;;7.42;2.12;;;;;;;22.80;48.44;99497.13;1739313;81;21159;-81
2022/06/16 08:19:54;;;;;;;4.05;2.00;;;;;;;22.86;47.27;99496.73;1761032;81;21007;-80
2022/06/16 08:22:21;;;;;;;6.92;2.17;;;;;;;22.94;46.10;99497.49;1761428;80;20995;-80
2022/06/16 08:24:48;;;;;;;8.48;2.30;;;;;;;22.96;46.49;99497.78;1753201;80;20996;-80
2022/06/16 08:27:19;;;;;;;3.47;1.87;;;;;;;23.00;46.57;99497.09;1781501;79;21019;-81
2022/06/16 08:29:47;;;;;;;4.62;2.40;;;;;;;23.09;45.98;99499.59;1753785;81;21504;-80
2022/06/16 08:32:18;;;;;;;4.70;2.02;;;;;;;23.20;46.36;99501.86;1773186;79;21102;-80
2022/06/16 08:34:45;;;;;;;5.65;2.30;;;;;;;23.30;44.74;99495.88;1762657;81;21026;-79
2022/06/16 08:37:11;;;;;;;5.62;2.62;;;;;;;23.34;44.34;99488.09;1768129;81;21007;-80
2022/06/16 08:39:38;;;;;;;4.08;2.02;;;;;;;23.43;45.28;99493.56;1760697;81;21744;-79
2022/06/16 08:42:22;;;;;;;4.20;1.90;;;;;;;23.53;45.21;99493.74;1762217;81;20987;-80
2022/06/16 08:45:19;;;;;;;7.67;2.00;;;;;;;23.60;44.81;99491.03;1747303;81;20996;-82
2022/06/16 08:48:18;;;;;;;4.53;2.20;;;;;;;23.69;44.72;99487.33;1764681;81;20979;-81
2022/06/16 08:51:06;;;;;;;5.95;2.30;;;;;;;23.75;43.83;99483.73;1765104;81;21681;-85
2022/06/16 08:54:15;;;;;;;6.83;2.58;;;;;;;23.77;43.89;99479.64;1759106;79;21006;-79
2022/06/16 08:56:57;;;;;;;5.30;2.17;;;;;;;23.79;43.69;99476.42;1763432;81;21092;-80
2022/06/16 08:59:54;;;;;;;4.05;1.90;;;;;;;23.89;42.38;99482.75;1765225;81;21066;-82
2022/06/16 09:02:44;;;;;;;4.33;1.87;;;;;;;23.92;43.24;99481.20;1760412;79;21220;-81
2022/06/16 09:05:41;;;;;;;4.65;1.80;;;;;;;24.01;42.92;99472.56;1763917;81;21328;-81
2022/06/16 09:08:31;;;;;;;3.45;1.67;;;;;;;24.09;42.94;99473.78;1757659;81;21554;-81
2022/06/16 09:11:24;;;;;;;4.90;2.22;;;;;;;24.13;39.55;99471.25;1762489;81;21564;-82
2022/06/16 09:14:06;;;;;;;;;;;;;;;24.17;40.82;99467.40;1766661;81;21047;-82
2022/06/16 09:16:40;;;;;;;10.13;1.90;;;;;;;24.20;41.36;99464.53;1762724;81;20589;-80
2022/06/16 09:19:21;;;;;;;9.65;1.95;;;;;;;24.29;41.65;99466.50;1763078;79;21007;-82
2022/06/16 09:22:11;;;;;;;5.53;1.90;;;;;;;24.31;40.36;99468.55;1764262;81;21050;-81
2022/06/16 09:25:14;;;;;;;6.28;2.02;;;;;;;24.36;40.47;99453.58;1761725;79;21060;-82
2022/06/16 09:27:44;;;;;;;;;;;;;;;24.46;40.51;99452.39;1764550;81;21003;-82
2022/06/16 09:30:18;;;;;;;9.35;1.67;;;;;;;24.56;40.15;99450.74;1760348;81;20439;-83
2022/06/16 09:32:53;;;;;;;3.75;1.87;;;;;;;24.67;40.97;99456.54;1759681;81;21087;-82
2022/06/16 09:35:32;;;;;;;5.00;1.77;;;;;;;24.78;40.49;99449.42;1761287;81;21028;-82
2022/06/16 09:38:08;;;;;;;3.90;1.70;;;;;;;24.89;40.62;99445.06;1766422;79;21063;-80
2022/06/16 09:40:46;;;;;;;3.17;1.65;;;;;;;25.04;40.81;99446.52;1759429;81;21031;-82
2022/06/16 09:43:33;;;;;;;5.42;1.77;;;;;;;25.20;40.66;99439.48;1759629;81;21027;-82
2022/06/16 09:46:16;;;;;;;7.22;1.82;;;;;;;25.28;38.09;99438.90;1761795;81;21114;-81
2022/06/16 09:49:03;;;;;;;4.42;1.98;;;;;;;25.38;39.35;99430.52;1768683;81;21089;-82
2022/06/16 09:51:41;;;;;;;5.75;1.80;;;;;;;25.44;39.41;99435.84;1762463;81;21007;-82
2022/06/16 09:54:30;;;;;;;4.25;1.82;;;;;;;25.49;39.02;99441.16;1763718;79;21320;-83
2022/06/16 09:57:17;;;;;;;9.03;1.80;;;;;;;25.51;38.09;99433.89;1742335;79;21018;-81
2022/06/16 09:59:52;;;;;;;9.03;1.90;;;;;;;25.47;38.61;99436.44;1750132;81;21039;-82
2022/06/16 10:02:27;;;;;;;9.38;1.90;;;;;;;25.53;38.87;99427.95;1754594;81;21086;-83
2022/06/16 10:04:54;;;;;;;5.75;1.80;;;;;;;25.66;36.73;99433.09;1756444;81;20987;-83
2022/06/16 10:07:41;;;;;;;9.10;2.10;;;;;;;25.65;38.55;99430.59;1766374;81;20980;-82
2022/06/16 10:10:18;;;;;;;4.30;1.80;;;;;;;25.74;38.31;99429.31;1759638;81;21058;-81
2022/06/16 10:13:18;;;;;;;4.03;2.05;;;;;;;25.86;38.59;99434.59;1761781;81;21007;-80
2022/06/16 10:16:00;;;;;;;5.40;2.00;;;;;;;26.00;38.52;99430.32;1760772;81;21098;-84
2022/06/16 10:18:29;;;;;;;;;;;;;;;26.17;38.55;99434.23;1763016;81;21007;-83
2022/06/16 10:20:56;;;;;;;6.50;1.90;;;;;;;26.27;37.60;99428.98;1760603;81;20484;-81
2022/06/16 10:23:34;;;;;;;3.90;1.92;;;;;;;26.25;37.31;99430.44;1729564;81;21020;-81
2022/06/16 10:26:07;;;;;;;5.03;1.87;;;;;;;26.28;36.91;99425.32;1762679;81;21183;-81
2022/06/16 10:29:06;;;;;;;5.17;2.10;;;;;;;26.35;36.88;99424.67;1761328;81;21060;-83
2022/06/16 10:31:45;;;;;;;3.47;1.62;;;;;;;26.41;37.47;99418.47;1762187;80;21067;-82
2022/06/16 10:34:38;;;;;;;6.47;2.20;;;;;;;26.51;35.40;99420.69;1758561;81;21022;-83
2022/06/16 10:37:23;;;;;;;;;;;;;;;26.44;36.09;99416.86;1757650;81;20991;-81
2022/06/16 10:40:04;;;;;;;5.85;2.62;;;;;;;26.44;36.08;99419.05;1761769;81;20137;-83
2022/06/16 10:42:41;;;;;;;5.58;1.87;;;;;;;26.59;37.43;99414.23;1760541;80;21023;-83
2022/06/16 10:45:23;;;;;;;4.45;1.80;;;;;;;26.72;36.50;99416.66;1752907;81;21200;-83
2022/06/16 10:48:00;;;;;;;7.53;1.77;;;;;;;26.64;34.79;99410.70;1751852;81;21032;-82
2022/06/16 10:50:44;;;;;;;3.70;1.82;;;;;;;26.65;35.65;99407.53;1757405;81;21109;-82
2022/06/16 10:53:42;;;;;;;5.20;2.00;;;;;;;26.64;36.08;99409.36;1759279;80;20991;-81
2022/06/16 10:56:22;;;;;;;5.45;2.05;;;;;;;26.69;35.87;99405.78;1761570;81;20994;-83
2022/06/16 10:59:00;;;;;;;16.27;2.75;;;;;;;26.74;36.15;99400.04;1758439;80;21043;-82
2022/06/16 11:01:41;;;;;;;6.22;1.87;;;;;;;26.82;36.21;99401.57;1763377;81;21101;-82
2022/06/16 11:04:15;;;;;;;5.55;2.00;;;;;;;26.98;36.15;99399.73;1756976;81;21540;-83
2022/06/16 11:06:52;;;;;;;10.85;2.27;;;;;;;27.12;36.28;99406.01;1752968;81;21028;-84
2022/06/16 11:09:24;;;;;;;4.55;1.90;;;;;;;27.19;36.05;99396.45;1760091;79;21044;-84
2022/06/16 11:11:58;;;;;;;4.85;2.00;;;;;;;27.35;35.61;99399.12;1731544;81;20988;-83
2022/06/16 11:14:47;;;;;;;3.40;1.95;;;;;;;27.32;35.53;99389.56;1766512;81;20948;-85
2022/06/16 11:17:32;;;;;;;4.03;1.82;;;;;;;27.45;35.37;99390.63;1760719;81;20968;-83
2022/06/16 11:20:07;;;;;;;22.25;16.82;;;;;;;27.55;35.56;99380.78;1759576;81;21098;-82
2022/06/16 11:22:41;;;;;;;7.28;2.77;;;;;;;27.75;35.41;99384.80;1755725;81;21135;-84
2022/06/16 11:25:27;;;;;;;4.05;1.80;;;;;;;27.92;34.50;99384.11;1762586;81;21042;-82
2022/06/16 11:28:13;;;;;;;4.33;1.77;;;;;;;28.08;34.52;99382.69;1753650;81;21090;-82
2022/06/16 11:30:48;;;;;;;5.33;2.20;;;;;;;28.19;32.61;99385.18;1755098;81;21029;-83
2022/06/16 11:36:58;;;;;;;3.90;1.92;;;;;;;28.10;33.15;99370.86;1764151;81;21520;-81
2022/06/16 11:39:42;;;;;;;6.92;2.42;;;;;;;28.18;32.53;99378.16;1760871;80;21015;-82
2022/06/16 11:42:14;;;;;;;6.85;1.75;;;;;;;28.26;32.59;99370.26;1763345;81;20991;-83
2022/06/16 11:44:59;;;;;;;4.67;1.90;;;;;;;28.42;32.93;99372.82;1739828;81;21007;-81
2022/06/16 11:48:09;;;;;;;7.00;1.62;;;;;;;28.50;32.15;99374.27;1758968;80;20992;-87
2022/06/16 11:51:13;;;;;;;7.28;1.82;;;;;;;28.64;32.51;99371.64;1763450;81;21030;-84
2022/06/16 11:54:10;;;;;;;4.75;2.10;;;;;;;28.91;32.47;99362.78;1757611;81;21052;-83
2022/06/16 11:56:46;;;;;;;3.45;1.70;;;;;;;29.14;31.90;99362.71;1752594;81;20963;-83
2022/06/16 11:59:30;;;;;;;5.50;1.70;;;;;;;29.29;31.23;99360.37;1759066;80;21003;-83
2022/06/16 12:02:17;;;;;;;4.60;1.98;;;;;;;29.44;31.27;99362.00;1760455;80;21094;-82
2022/06/16 12:05:15;;;;;;;2.90;1.60;;;;;;;29.57;30.74;99348.23;1758959;81;20987;-83
2022/06/16 12:08:03;;;;;;;5.12;1.70;;;;;;;29.83;30.93;99350.98;1757363;81;20995;-82
2022/06/16 12:10:42;;;;;;;3.37;1.72;;;;;;;30.12;29.93;99349.83;1753744;80;21033;-83
2022/06/16 12:13:32;;;;;;;6.70;1.50;;;;;;;30.37;29.55;99341.98;1782771;80;21578;-80
2022/06/16 12:16:40;;;;;;;3.80;1.80;;;;;;;30.60;27.26;99351.63;1773154;80;21056;-81
2022/06/16 12:19:20;;;;;;;4.45;1.67;;;;;;;30.68;28.71;99343.13;1663534;84;21850;-83
2022/06/16 12:22:04;;;;;;;9.83;1.90;;;;;;;30.83;27.36;99341.16;1799082;78;21005;-81
2022/06/16 12:24:41;;;;;;;3.58;1.65;;;;;;;31.10;25.32;99336.91;1811997;78;20995;-83
2022/06/16 12:27:19;;;;;;;5.37;1.40;;;;;;;31.50;26.55;99333.13;1802445;78;21067;-83
2022/06/16 12:30:03;;;;;;;5.05;1.55;;;;;;;31.95;27.26;99336.27;1817731;78;21037;-84
2022/06/16 12:33:00;;;;;;;6.78;2.62;;;;;;;32.38;26.63;99334.20;1808799;77;21089;-81
2022/06/16 12:35:47;;;;;;;5.25;1.75;;;;;;;32.86;24.89;99327.77;1810110;79;21039;-82
2022/06/16 12:38:36;;;;;;;4.10;1.57;;;;;;;33.52;25.44;99323.31;1811616;79;21027;-81
2022/06/16 12:41:36;;;;;;;3.55;1.75;;;;;;;34.11;25.07;99315.87;1810178;78;21050;-86
2022/06/16 12:44:16;;;;;;;4.97;1.50;;;;;;;34.67;24.07;99319.48;1809435;78;21589;-83